createdAt,value
2018-11-11T00:01:30.696Z,2.63
2018-11-11T00:03:58.628Z,2.37
2018-11-11T00:06:26.619Z,1.37
2018-11-11T00:08:54.615Z,2.17
2018-11-11T00:11:22.567Z,2.60
2018-11-11T00:13:50.545Z,2.17
2018-11-11T00:16:18.556Z,1.77
2018-11-11T00:18:46.520Z,2.60
2018-11-11T00:21:14.495Z,2.10
2018-11-11T00:23:42.449Z,1.67
2018-11-11T00:26:10.414Z,1.87
2018-11-11T00:28:38.443Z,2.10
2018-11-11T00:31:06.323Z,2.23
2018-11-11T00:33:34.307Z,1.93
2018-11-11T00:36:02.277Z,2.47
2018-11-11T00:38:30.273Z,2.83
2018-11-11T00:40:58.227Z,2.10
2018-11-11T00:43:26.222Z,2.20
2018-11-11T00:45:54.225Z,2.47
2018-11-11T00:48:22.187Z,2.07
2018-11-11T00:50:50.206Z,2.80
2018-11-11T00:53:19.668Z,2.07
2018-11-11T00:55:48.170Z,1.33
2018-11-11T00:58:16.321Z,2.20
2018-11-11T01:00:44.519Z,2.07
2018-11-11T01:03:12.648Z,2.20
2018-11-11T01:05:40.874Z,2.40
2018-11-11T01:08:09.047Z,1.70
2018-11-11T01:10:37.245Z,2.20
2018-11-11T01:13:05.606Z,2.50
2018-11-11T01:15:33.803Z,1.70
2018-11-11T01:18:01.977Z,1.77
2018-11-11T01:20:30.125Z,2.40
2018-11-11T01:22:58.330Z,2.30
2018-11-11T01:25:26.505Z,1.63
2018-11-11T01:27:54.700Z,1.60
2018-11-11T01:30:22.849Z,1.93
2018-11-11T01:32:50.988Z,2.87
2018-11-11T01:35:19.158Z,1.57
2018-11-11T01:37:47.290Z,1.20
2018-11-11T01:40:15.452Z,1.40
2018-11-11T01:42:43.693Z,3.00
2018-11-11T01:45:14.579Z,1.23
2018-11-11T01:47:43.163Z,2.00
2018-11-11T01:50:12.285Z,2.30
2018-11-11T01:52:40.737Z,1.43
2018-11-11T01:55:09.837Z,1.87
2018-11-11T01:57:38.371Z,1.53
2018-11-11T02:00:08.952Z,1.57
2018-11-11T02:02:37.309Z,2.10
2018-11-11T02:05:06.830Z,1.10
2018-11-11T02:07:35.035Z,1.63
2018-11-11T02:10:03.624Z,2.13
2018-11-11T02:12:31.915Z,1.87
2018-11-11T02:15:00.124Z,1.63
2018-11-11T02:17:29.546Z,1.00
2018-11-11T02:19:58.157Z,0.90
2018-11-11T02:22:26.434Z,1.10
2018-11-11T02:24:54.646Z,0.90
2018-11-11T02:27:22.843Z,1.57
2018-11-11T02:29:51.061Z,1.17
2018-11-11T02:32:19.309Z,0.90
2018-11-11T02:34:47.530Z,0.80
2018-11-11T02:37:15.790Z,0.80
2018-11-11T02:39:44.034Z,0.70
2018-11-11T02:42:12.213Z,1.00
2018-11-11T02:44:40.433Z,0.57
2018-11-11T02:47:08.701Z,0.70
2018-11-11T02:49:36.933Z,0.50
2018-11-11T02:52:05.383Z,0.60
2018-11-11T02:54:33.668Z,0.80
2018-11-11T02:57:02.026Z,0.90
2018-11-11T02:59:30.243Z,1.00
2018-11-11T03:01:58.476Z,0.93
2018-11-11T03:04:26.718Z,1.33
2018-11-11T03:06:54.912Z,1.03
2018-11-11T03:09:23.119Z,1.43
2018-11-11T03:11:51.351Z,1.63
2018-11-11T03:14:19.602Z,2.10
2018-11-11T03:16:47.820Z,2.10
2018-11-11T03:19:15.990Z,2.37
2018-11-11T03:21:44.227Z,2.90
2018-11-11T03:24:12.341Z,1.93
2018-11-11T03:26:40.548Z,2.77
2018-11-11T03:29:08.746Z,2.43
2018-11-11T03:31:36.909Z,2.70
2018-11-11T03:34:05.379Z,3.00
2018-11-11T03:36:33.615Z,2.80
2018-11-11T03:39:01.865Z,3.10
2018-11-11T03:41:30.076Z,3.23
2018-11-11T03:43:58.269Z,3.23
2018-11-11T03:46:26.511Z,4.03
2018-11-11T03:48:54.710Z,3.43
2018-11-11T03:51:22.879Z,3.60
2018-11-11T03:53:51.052Z,2.77
2018-11-11T03:56:19.287Z,2.80
2018-11-11T03:58:47.538Z,2.70
2018-11-11T04:01:15.720Z,3.60
2018-11-11T04:03:43.913Z,3.30
2018-11-11T04:06:12.152Z,4.20
2018-11-11T04:08:40.352Z,3.63
2018-11-11T04:11:08.539Z,3.70
2018-11-11T04:13:36.779Z,4.27
2018-11-11T04:16:05.040Z,3.20
2018-11-11T04:18:33.283Z,4.57
2018-11-11T04:21:01.543Z,3.60
2018-11-11T04:23:29.740Z,4.67
2018-11-11T04:25:57.956Z,3.77
2018-11-11T04:28:26.192Z,4.90
2018-11-11T04:30:54.437Z,3.87
2018-11-11T04:33:22.610Z,3.83
2018-11-11T04:35:50.843Z,4.73
2018-11-11T04:38:19.076Z,3.50
2018-11-11T04:40:47.271Z,2.20
2018-11-11T04:43:15.405Z,2.10
2018-11-11T04:45:43.633Z,1.27
2018-11-11T04:48:11.849Z,1.13
2018-11-11T04:50:40.054Z,1.00
2018-11-11T04:53:08.240Z,1.00
2018-11-11T04:55:36.419Z,0.57
2018-11-11T04:58:04.789Z,0.30
2018-11-11T05:00:33.003Z,0.40
2018-11-11T05:03:01.276Z,0.20
2018-11-11T05:05:29.456Z,0.10
2018-11-11T05:07:57.674Z,0.20
2018-11-11T05:10:26.847Z,0.23
2018-11-11T05:12:54.985Z,0.30
2018-11-11T05:15:23.216Z,0.70
2018-11-11T05:17:51.424Z,0.80
2018-11-11T05:20:19.681Z,1.57
2018-11-11T05:22:47.874Z,2.37
2018-11-11T05:25:16.072Z,3.03
2018-11-11T05:27:44.632Z,3.53
2018-11-11T05:30:13.609Z,6.57
2018-11-11T05:32:41.836Z,3.60
2018-11-11T05:35:10.839Z,3.77
2018-11-11T05:37:39.495Z,3.50
2018-11-11T05:40:08.611Z,3.17
2018-11-11T05:42:36.849Z,2.50
2018-11-11T05:45:06.279Z,2.50
2018-11-11T05:47:34.461Z,2.43
2018-11-11T05:50:02.793Z,2.77
2018-11-11T05:52:30.969Z,2.50
2018-11-11T05:54:59.197Z,1.77
2018-11-11T05:57:27.388Z,1.57
2018-11-11T05:59:55.603Z,2.23
2018-11-11T06:02:23.841Z,2.20
2018-11-11T06:04:52.085Z,2.23
2018-11-11T06:07:20.264Z,1.63
2018-11-11T06:09:48.443Z,1.67
2018-11-11T06:12:16.611Z,1.50
2018-11-11T06:14:44.742Z,1.63
2018-11-11T06:17:12.914Z,1.97
2018-11-11T06:19:41.064Z,1.10
2018-11-11T06:22:09.246Z,1.57
2018-11-11T06:24:37.413Z,2.10
2018-11-11T06:27:05.800Z,2.00
2018-11-11T06:29:34.003Z,1.43
2018-11-11T06:32:02.316Z,1.30
2018-11-11T06:34:30.484Z,1.97
2018-11-11T06:36:58.759Z,1.30
2018-11-11T06:39:26.926Z,1.00
2018-11-11T06:41:55.110Z,1.20
2018-11-11T06:44:23.264Z,1.37
2018-11-11T06:46:51.452Z,1.70
2018-11-11T06:49:19.759Z,1.70
2018-11-11T06:51:48.020Z,1.17
2018-11-11T06:54:16.356Z,2.23
2018-11-11T06:56:44.560Z,1.17
2018-11-11T06:59:12.744Z,1.27
2018-11-11T07:01:40.891Z,1.40
2018-11-11T07:04:09.090Z,1.97
2018-11-11T07:06:37.228Z,1.33
2018-11-11T07:09:06.586Z,1.00
2018-11-11T07:11:34.817Z,1.30
2018-11-11T07:14:03.305Z,2.03
2018-11-11T07:16:31.505Z,1.13
2018-11-11T07:18:59.783Z,0.63
2018-11-11T07:21:28.056Z,0.73
2018-11-11T07:23:56.354Z,1.20
2018-11-11T07:26:24.724Z,1.00
2018-11-11T07:28:52.964Z,0.73
2018-11-11T07:31:21.182Z,1.03
2018-11-11T07:33:49.504Z,1.03
2018-11-11T07:36:17.690Z,0.70
2018-11-11T07:38:45.933Z,1.20
2018-11-11T07:41:14.192Z,1.20
2018-11-11T07:43:42.374Z,1.33
2018-11-11T07:46:10.595Z,1.43
2018-11-11T07:48:38.830Z,1.17
2018-11-11T07:51:07.212Z,0.97
2018-11-11T07:53:35.489Z,0.60
2018-11-11T07:56:04.044Z,1.33
2018-11-11T07:58:32.326Z,0.70
2018-11-11T08:01:00.515Z,1.53
2018-11-11T08:03:28.965Z,0.80
2018-11-11T08:05:57.192Z,1.00
2018-11-11T08:08:25.426Z,0.80
2018-11-11T08:11:04.731Z,0.60
2018-11-11T08:13:33.082Z,0.60
2018-11-11T08:16:01.278Z,0.73
2018-11-11T08:18:29.548Z,0.97
2018-11-11T08:20:57.784Z,1.47
2018-11-11T08:23:25.973Z,0.63
2018-11-11T08:25:54.191Z,0.53
2018-11-11T08:28:22.445Z,0.80
2018-11-11T08:30:50.628Z,0.77
2018-11-11T08:33:18.814Z,0.60
2018-11-11T08:35:46.999Z,0.53
2018-11-11T08:38:15.185Z,1.17
2018-11-11T08:40:43.429Z,0.80
2018-11-11T08:43:11.584Z,1.20
2018-11-11T08:45:39.769Z,1.37
2018-11-11T08:48:07.994Z,0.73
2018-11-11T08:50:36.205Z,0.67
2018-11-11T08:53:04.418Z,1.00
2018-11-11T08:55:32.545Z,0.60
2018-11-11T08:58:00.815Z,0.80
2018-11-11T09:00:28.998Z,0.87
2018-11-11T09:02:58.325Z,1.00
2018-11-11T09:05:28.798Z,0.83
2018-11-11T09:07:57.703Z,0.80
2018-11-11T09:10:27.023Z,0.70
2018-11-11T09:12:55.198Z,1.27
2018-11-11T09:15:23.424Z,0.50
2018-11-11T09:17:51.592Z,0.90
2018-11-11T09:20:19.806Z,0.87
2018-11-11T09:22:47.992Z,0.50
2018-11-11T09:25:16.311Z,1.00
2018-11-11T09:27:44.473Z,1.13
2018-11-11T09:30:13.829Z,0.73
2018-11-11T09:32:42.206Z,0.83
2018-11-11T09:35:10.518Z,1.10
2018-11-11T09:37:39.298Z,0.70
2018-11-11T09:40:08.725Z,0.87
2018-11-11T09:42:36.967Z,0.97
2018-11-11T09:45:07.700Z,0.90
2018-11-11T09:47:35.985Z,1.60
2018-11-11T09:50:05.930Z,1.10
2018-11-11T09:52:34.208Z,0.83
2018-11-11T09:55:02.438Z,0.80
2018-11-11T09:57:30.630Z,1.43
2018-11-11T09:59:58.950Z,1.17
2018-11-11T10:02:27.172Z,1.30
2018-11-11T10:05:00.796Z,0.80
2018-11-11T10:07:35.952Z,1.20
2018-11-11T10:10:10.406Z,1.43
2018-11-11T10:12:44.853Z,1.00
2018-11-11T10:15:19.137Z,0.90
2018-11-11T10:18:06.742Z,1.03
2018-11-11T10:20:43.303Z,0.80
2018-11-11T10:23:20.376Z,1.10
2018-11-11T10:25:54.251Z,1.13
2018-11-11T10:28:30.658Z,0.73
2018-11-11T10:31:04.450Z,0.70
2018-11-11T10:33:38.188Z,1.00
2018-11-11T10:36:12.103Z,1.13
2018-11-11T10:39:10.716Z,1.23
2018-11-11T10:41:58.293Z,1.13
2018-11-11T10:44:31.456Z,1.07
2018-11-11T10:47:02.848Z,1.10
2018-11-11T10:49:52.877Z,0.93
2018-11-11T10:52:21.534Z,1.03
2018-11-11T10:54:49.979Z,0.83
2018-11-11T10:57:20.383Z,1.00
2018-11-11T10:59:48.801Z,0.90
2018-11-11T11:02:19.474Z,1.40
2018-11-11T11:04:53.311Z,1.37
2018-11-11T11:07:21.617Z,1.13
2018-11-11T11:15:30.333Z,1.27
2018-11-11T11:17:58.635Z,1.73
2018-11-11T11:20:26.907Z,1.20
2018-11-11T11:22:55.264Z,1.00
2018-11-11T11:25:23.481Z,1.17
2018-11-11T11:27:51.961Z,0.80
2018-11-11T11:30:20.546Z,1.00
2018-11-11T11:32:50.198Z,1.27
2018-11-11T11:35:19.070Z,2.07
2018-11-11T11:37:47.650Z,1.07
2018-11-11T11:40:16.182Z,0.90
2018-11-11T11:42:44.603Z,2.00
2018-11-11T11:45:12.875Z,1.07
2018-11-11T11:47:41.732Z,0.90
2018-11-11T11:50:12.492Z,1.60
2018-11-11T11:52:41.435Z,0.87
2018-11-11T11:55:10.129Z,1.43
2018-11-11T11:57:38.546Z,1.00
2018-11-11T12:00:09.292Z,0.60
2018-11-11T12:02:37.735Z,0.90
2018-11-11T12:05:07.223Z,1.03
2018-11-11T12:07:35.627Z,1.50
2018-11-11T12:10:05.228Z,1.03
2018-11-11T12:12:33.625Z,1.00
2018-11-11T12:15:01.803Z,1.27
2018-11-11T12:17:29.994Z,0.90
2018-11-11T12:19:58.049Z,0.73
2018-11-11T12:22:26.092Z,0.90
2018-11-11T12:24:54.114Z,0.87
2018-11-11T12:27:22.202Z,1.00
2018-11-11T12:29:50.164Z,1.20
2018-11-11T12:32:18.140Z,1.17
2018-11-11T12:34:46.210Z,0.93
2018-11-11T12:37:14.286Z,0.70
2018-11-11T12:39:42.394Z,0.67
2018-11-11T12:42:10.349Z,0.60
2018-11-11T12:44:38.432Z,0.80
2018-11-11T12:47:06.654Z,0.40
2018-11-11T12:49:34.686Z,0.60
2018-11-11T12:52:02.681Z,1.00
2018-11-11T12:54:30.963Z,0.43
2018-11-11T12:56:59.201Z,0.53
2018-11-11T12:59:27.469Z,0.50
2018-11-11T13:01:55.691Z,1.10
2018-11-11T13:04:23.975Z,0.67
2018-11-11T13:06:52.181Z,0.50
2018-11-11T13:09:20.403Z,0.80
2018-11-11T13:11:48.662Z,0.50
2018-11-11T13:14:16.636Z,0.40
2018-11-11T13:16:44.663Z,0.70
2018-11-11T13:19:12.655Z,0.60
2018-11-11T13:21:40.609Z,0.53
2018-11-11T13:24:08.583Z,0.43
2018-11-11T13:26:36.790Z,0.50
2018-11-11T13:29:05.185Z,0.50
2018-11-11T13:31:33.338Z,1.03
2018-11-11T13:34:01.477Z,0.60
2018-11-11T13:36:29.637Z,0.57
2018-11-11T13:38:57.848Z,0.43
2018-11-11T13:41:26.001Z,0.97
2018-11-11T13:43:54.176Z,0.57
2018-11-11T13:46:22.423Z,0.60
2018-11-11T13:48:50.628Z,0.57
2018-11-11T13:51:18.811Z,0.30
2018-11-11T13:53:47.067Z,0.53
2018-11-11T13:56:15.882Z,0.30
2018-11-11T13:58:57.547Z,0.37
2018-11-11T14:01:25.759Z,0.40
2018-11-11T14:03:56.213Z,0.80
2018-11-11T14:06:24.828Z,0.30
2018-11-11T14:08:53.035Z,0.30
2018-11-11T14:11:21.266Z,0.30
2018-11-11T14:13:49.453Z,0.30
2018-11-11T14:16:17.678Z,0.20
2018-11-11T14:18:46.064Z,0.40
2018-11-11T14:21:14.146Z,0.50
2018-11-11T14:23:42.294Z,0.50
2018-11-11T14:26:10.512Z,0.30
2018-11-11T14:28:38.768Z,0.93
2018-11-11T14:31:06.939Z,0.20
2018-11-11T14:33:35.122Z,0.30
2018-11-11T14:36:03.415Z,0.30
2018-11-11T14:38:31.664Z,0.23
2018-11-11T14:40:59.919Z,0.60
2018-11-11T14:43:28.083Z,0.30
2018-11-11T14:45:56.382Z,0.50
2018-11-11T14:48:24.611Z,0.27
2018-11-11T14:50:52.820Z,0.30
2018-11-11T14:53:21.080Z,0.50
2018-11-11T14:55:49.307Z,0.17
2018-11-11T14:58:17.938Z,0.40
2018-11-11T15:00:46.252Z,0.30
2018-11-11T15:03:15.976Z,0.43
2018-11-11T15:05:44.195Z,0.33
2018-11-11T15:08:12.482Z,0.30
2018-11-11T15:10:40.692Z,0.30
2018-11-11T15:13:10.080Z,0.30
2018-11-11T15:15:38.050Z,0.37
2018-11-11T15:18:06.734Z,0.50
2018-11-11T15:20:36.324Z,0.40
2018-11-11T15:23:04.708Z,0.30
2018-11-11T15:25:33.082Z,0.30
2018-11-11T15:28:01.189Z,0.30
2018-11-11T15:30:30.672Z,0.30
2018-11-11T15:32:59.483Z,0.40
2018-11-11T15:35:27.685Z,0.40
2018-11-11T15:40:49.286Z,0.23
2018-11-11T15:43:17.519Z,0.50
2018-11-11T15:45:45.993Z,3.43
2018-11-11T15:48:14.512Z,0.43
2018-11-11T15:50:42.790Z,0.63
2018-11-11T15:53:11.443Z,0.23
2018-11-11T15:55:40.711Z,0.37
2018-11-11T15:58:09.478Z,0.50
2018-11-11T16:00:39.666Z,0.43
2018-11-11T16:03:08.284Z,0.40
2018-11-11T16:05:37.121Z,0.50
2018-11-11T16:08:05.983Z,0.50
2018-11-11T16:10:35.038Z,0.50
2018-11-11T16:13:03.791Z,0.40
2018-11-11T16:15:36.108Z,0.50
2018-11-11T16:18:06.928Z,0.40
2018-11-11T16:20:36.603Z,0.40
2018-11-11T16:23:06.197Z,0.60
2018-11-11T16:25:36.579Z,0.50
2018-11-11T16:28:05.463Z,1.37
2018-11-11T16:30:35.439Z,0.40
2018-11-11T16:33:04.177Z,0.60
2018-11-11T16:35:32.968Z,0.80
2018-11-11T16:38:01.693Z,0.73
2018-11-11T16:40:32.524Z,0.87
2018-11-11T16:43:01.400Z,0.97
2018-11-11T16:45:31.233Z,1.37
2018-11-11T16:48:01.364Z,0.90
2018-11-11T16:50:31.092Z,1.10
2018-11-11T16:53:00.961Z,1.27
2018-11-11T16:55:30.707Z,1.47
2018-11-11T16:57:59.221Z,1.60
2018-11-11T17:00:28.945Z,1.57
2018-11-11T17:02:58.638Z,1.77
2018-11-11T17:05:28.613Z,1.77
2018-11-11T17:07:57.326Z,2.40
2018-11-11T17:10:27.362Z,2.47
2018-11-11T17:12:57.286Z,3.33
2018-11-11T17:15:27.854Z,2.87
2018-11-11T17:17:56.489Z,2.50
2018-11-11T17:20:26.054Z,2.57
2018-11-11T17:22:56.100Z,2.20
2018-11-11T17:25:25.576Z,1.90
2018-11-11T17:27:54.561Z,2.37
2018-11-11T17:30:25.411Z,2.00
2018-11-11T17:32:54.649Z,2.27
2018-11-11T17:35:23.319Z,2.03
2018-11-11T17:37:51.721Z,1.80
2018-11-11T17:40:28.346Z,2.37
2018-11-11T17:42:57.672Z,2.30
2018-11-11T17:45:27.229Z,2.20
2018-11-11T17:47:56.258Z,2.57
2018-11-11T17:50:28.864Z,2.13
2018-11-11T17:52:57.618Z,2.50
2018-11-11T17:55:26.523Z,2.20
2018-11-11T17:57:54.847Z,2.77
2018-11-11T18:00:24.201Z,2.80
2018-11-11T18:02:52.740Z,4.10
2018-11-11T18:05:22.163Z,3.93
2018-11-11T18:07:50.431Z,3.77
2018-11-11T18:10:19.924Z,4.13
2018-11-11T18:12:48.243Z,5.37
2018-11-11T18:15:18.080Z,3.87
2018-11-11T18:17:46.511Z,4.00
2018-11-11T18:20:22.625Z,4.47
2018-11-11T18:22:51.579Z,4.13
2018-11-11T18:25:19.869Z,5.77
2018-11-11T18:27:48.248Z,5.90
2018-11-11T18:30:20.194Z,5.63
2018-11-11T18:32:48.724Z,5.33
2018-11-11T18:35:17.715Z,5.77
2018-11-11T18:37:46.004Z,5.73
2018-11-11T18:40:15.614Z,6.87
2018-11-11T18:42:43.960Z,7.73
2018-11-11T18:45:13.881Z,9.27
2018-11-11T18:47:42.284Z,12.23
2018-11-11T18:50:13.311Z,14.33
2018-11-11T18:52:41.522Z,13.93
2018-11-11T18:55:10.262Z,13.70
2018-11-11T18:57:38.873Z,12.90
2018-11-11T19:00:09.795Z,15.20
2018-11-11T19:02:38.102Z,16.73
2018-11-11T19:05:07.557Z,16.53
2018-11-11T19:07:35.815Z,15.67
2018-11-11T19:10:04.840Z,17.40
2018-11-11T19:12:32.993Z,17.77
2018-11-11T19:15:01.240Z,16.73
2018-11-11T19:17:29.426Z,16.43
2018-11-11T19:19:57.655Z,15.93
2018-11-11T19:22:26.085Z,13.67
2018-11-11T19:24:54.504Z,16.17
2018-11-11T19:27:22.922Z,16.40
2018-11-11T19:29:51.555Z,16.93
2018-11-11T19:32:20.269Z,17.13
2018-11-11T19:34:49.312Z,15.60
2018-11-11T19:37:17.814Z,15.63
2018-11-11T19:39:46.573Z,16.83
2018-11-11T19:42:14.953Z,17.03
2018-11-11T19:44:43.191Z,17.37
2018-11-11T19:47:11.411Z,17.10
2018-11-11T19:49:39.780Z,18.77
2018-11-11T19:52:08.573Z,15.57
2018-11-11T19:54:36.798Z,19.47
2018-11-11T19:57:05.280Z,15.83
2018-11-11T19:59:33.491Z,15.70
2018-11-11T20:02:01.724Z,14.57
2018-11-11T20:04:29.946Z,13.40
2018-11-11T20:06:58.244Z,13.37
2018-11-11T20:09:26.477Z,14.27
2018-11-11T20:11:54.693Z,15.77
2018-11-11T20:14:22.991Z,16.47
2018-11-11T20:16:51.213Z,15.97
2018-11-11T20:19:19.444Z,17.33
2018-11-11T20:21:47.725Z,16.67
2018-11-11T20:24:16.134Z,17.13
2018-11-11T20:26:44.328Z,16.97
2018-11-11T20:29:12.604Z,16.40
2018-11-11T20:31:41.943Z,16.67
2018-11-11T20:34:10.186Z,15.33
2018-11-11T20:36:38.407Z,16.07
2018-11-11T20:39:09.451Z,16.53
2018-11-11T20:41:37.721Z,14.93
2018-11-11T20:44:06.521Z,16.03
2018-11-11T20:46:35.329Z,15.10
2018-11-11T20:49:03.700Z,13.20
2018-11-11T20:51:31.877Z,12.67
2018-11-11T20:54:00.913Z,12.07
2018-11-11T20:56:29.202Z,11.77
2018-11-11T20:58:57.431Z,15.50
2018-11-11T21:01:25.692Z,17.37
2018-11-11T21:03:54.015Z,17.03
2018-11-11T21:06:22.266Z,18.03
2018-11-11T21:08:50.518Z,16.70
2018-11-11T21:11:18.891Z,15.50
2018-11-11T21:13:47.275Z,13.30
2018-11-11T21:16:15.648Z,11.53
2018-11-11T21:18:43.899Z,10.63
2018-11-11T21:21:12.324Z,9.80
2018-11-11T21:23:40.589Z,9.80
2018-11-11T21:26:08.844Z,9.70
2018-11-11T21:28:37.136Z,9.23
2018-11-11T21:31:05.394Z,8.40
2018-11-11T21:33:33.722Z,7.23
2018-11-11T21:36:01.964Z,6.67
2018-11-11T21:38:30.379Z,6.30
2018-11-11T21:40:58.648Z,7.67
2018-11-11T21:43:26.943Z,7.23
2018-11-11T21:45:55.208Z,9.17
2018-11-11T21:48:23.480Z,8.77
2018-11-11T21:50:51.730Z,8.90
2018-11-11T21:53:40.006Z,8.17
2018-11-11T21:56:08.551Z,8.77
2018-11-11T21:58:36.794Z,9.27
2018-11-11T22:01:05.483Z,8.60
2018-11-11T22:03:34.733Z,10.27
2018-11-11T22:06:02.958Z,10.23
2018-11-11T22:08:31.632Z,10.80
2018-11-11T22:10:59.914Z,13.60
2018-11-11T22:13:28.246Z,14.27
2018-11-11T22:15:56.585Z,14.23
2018-11-11T22:18:24.873Z,13.53
2018-11-11T22:20:53.118Z,13.20
2018-11-11T22:23:21.402Z,13.13
2018-11-11T22:25:49.718Z,12.80
2018-11-11T22:28:17.972Z,12.30
2018-11-11T22:30:46.179Z,12.50
2018-11-11T22:33:14.429Z,12.90
2018-11-11T22:35:42.653Z,12.53
2018-11-11T22:38:10.854Z,11.67
2018-11-11T22:40:39.052Z,11.90
2018-11-11T22:43:07.352Z,11.30
2018-11-11T22:45:35.599Z,11.80
2018-11-11T22:48:03.851Z,12.17
2018-11-11T22:50:32.069Z,12.00
2018-11-11T22:53:00.362Z,11.67
2018-11-11T22:55:28.768Z,11.97
2018-11-11T22:57:56.953Z,12.00
2018-11-11T23:00:29.194Z,12.30
2018-11-11T23:02:57.599Z,11.40
2018-11-11T23:05:25.875Z,12.60
2018-11-11T23:07:54.066Z,13.70
2018-11-11T23:10:22.522Z,15.53
2018-11-11T23:12:50.753Z,13.70
2018-11-11T23:15:20.229Z,12.27
2018-11-11T23:17:48.403Z,14.47
2018-11-11T23:20:17.866Z,13.00
2018-11-11T23:22:46.163Z,14.10
2018-11-11T23:25:15.525Z,13.50
2018-11-11T23:27:43.735Z,13.67
2018-11-11T23:30:15.062Z,12.63
2018-11-11T23:32:43.466Z,14.17
2018-11-11T23:35:11.667Z,13.07
2018-11-11T23:37:40.391Z,13.93
2018-11-11T23:40:10.139Z,14.00
2018-11-11T23:42:38.653Z,14.10
2018-11-11T23:45:07.000Z,16.93
2018-11-11T23:47:35.213Z,18.20
2018-11-11T23:50:03.571Z,17.57
2018-11-11T23:52:31.746Z,19.60
2018-11-11T23:54:59.916Z,20.67
2018-11-11T23:57:28.175Z,19.40
2018-11-11T23:59:56.351Z,19.37
